NKS2505 KMSY-KFLL
Flight info
| Callsign | NKS2505 |
|---|---|
| Flight time | 1h 25m |
| Altitude | 37000 |
| Route | BLVNS Y290 DOWRY TEEKY4 |
| Aircraft | A320/M-SDE3FGHIRWY/LB1 |
Departure
| Time | 2026-05-05 23:42 |
|---|---|
| Airport | Louis Armstrong New Orleans International Airport (KMSY) |
Arrival
| Time | 2026-05-06 01:07 |
|---|---|
| Airport | Fort Lauderdale Hollywood International Airport (KFLL) |
| Time | Latitude | Longitude | Altitude | Speed | Heading |
|---|---|---|---|---|---|
| 2026-05-05 23:12 | 29.99433 | -90.25622 | 7 ft | 0 kts | 270° |
| 2026-05-05 23:30 | 29.99433 | -90.25613 | 7 ft | 4 kts | 269° |
| 2026-05-05 23:30 | 29.99435 | -90.25582 | 8 ft | 4 kts | 257° |
| 2026-05-05 23:31 | 29.99444 | -90.25555 | 8 ft | 4 kts | 219° |
| 2026-05-05 23:31 | 29.99457 | -90.25548 | 8 ft | 0 kts | 181° |
| 2026-05-05 23:35 | 29.99456 | -90.25548 | 8 ft | 1 kts | 181° |
| 2026-05-05 23:36 | 29.99432 | -90.25550 | 9 ft | 6 kts | 184° |
| 2026-05-05 23:36 | 29.99377 | -90.25554 | 6 ft | 10 kts | 184° |
| 2026-05-05 23:36 | 29.99305 | -90.25560 | 6 ft | 10 kts | 183° |
| 2026-05-05 23:36 | 29.99228 | -90.25577 | 5 ft | 13 kts | 207° |
| 2026-05-05 23:37 | 29.99207 | -90.25682 | 4 ft | 17 kts | 283° |
| 2026-05-05 23:37 | 29.99238 | -90.25817 | 6 ft | 18 kts | 297° |
| 2026-05-05 23:37 | 29.99341 | -90.25897 | 3 ft | 19 kts | 304° |
| 2026-05-05 23:37 | 29.99379 | -90.26049 | 5 ft | 21 kts | 286° |
| 2026-05-05 23:38 | 29.99418 | -90.26212 | 7 ft | 22 kts | 285° |
| 2026-05-05 23:38 | 29.99460 | -90.26390 | 8 ft | 24 kts | 285° |
| 2026-05-05 23:38 | 29.99504 | -90.26572 | 11 ft | 22 kts | 285° |
| 2026-05-05 23:38 | 29.99550 | -90.26756 | 13 ft | 25 kts | 285° |
| 2026-05-05 23:39 | 29.99599 | -90.26961 | 11 ft | 28 kts | 285° |
| 2026-05-05 23:39 | 29.99654 | -90.27190 | 7 ft | 32 kts | 285° |
| 2026-05-05 23:39 | 29.99702 | -90.27392 | 4 ft | 27 kts | 286° |
| 2026-05-05 23:39 | 29.99750 | -90.27591 | 5 ft | 17 kts | 279° |
| 2026-05-05 23:40 | 29.99669 | -90.27680 | 2 ft | 20 kts | 197° |
| 2026-05-05 23:40 | 29.99555 | -90.27743 | 1 ft | 18 kts | 227° |
| 2026-05-05 23:40 | 29.99466 | -90.27839 | 3 ft | 17 kts | 257° |
| 2026-05-05 23:40 | 29.99493 | -90.27981 | 5 ft | 19 kts | 284° |
| 2026-05-05 23:41 | 29.99529 | -90.28128 | 7 ft | 18 kts | 286° |
| 2026-05-05 23:41 | 29.99627 | -90.28161 | 7 ft | 17 kts | 37° |
| 2026-05-05 23:41 | 29.99624 | -90.28010 | 6 ft | 33 kts | 106° |
| 2026-05-05 23:41 | 29.99492 | -90.27475 | 2 ft | 104 kts | 105° |
| 2026-05-05 23:42 | 29.99246 | -90.26456 | 10 ft | 156 kts | 105° |
| 2026-05-05 23:42 | 29.98943 | -90.25180 | 572 ft | 160 kts | 111° |
| 2026-05-05 23:42 | 29.98642 | -90.23942 | 1282 ft | 161 kts | 110° |
| 2026-05-05 23:42 | 29.98330 | -90.22676 | 1898 ft | 171 kts | 110° |
| 2026-05-05 23:43 | 29.97967 | -90.21246 | 2128 ft | 201 kts | 110° |
| 2026-05-05 23:43 | 29.97553 | -90.19595 | 2487 ft | 228 kts | 109° |
| 2026-05-05 23:43 | 29.97069 | -90.17744 | 2981 ft | 253 kts | 114° |
| 2026-05-05 23:43 | 29.96109 | -90.16012 | 3669 ft | 263 kts | 134° |
| 2026-05-05 23:44 | 29.94898 | -90.14405 | 4604 ft | 268 kts | 134° |
| 2026-05-05 23:44 | 29.93678 | -90.12746 | 5514 ft | 275 kts | 133° |
| 2026-05-05 23:44 | 29.92442 | -90.11035 | 6417 ft | 281 kts | 133° |
| 2026-05-05 23:44 | 29.91181 | -90.09286 | 7212 ft | 287 kts | 133° |
| 2026-05-05 23:45 | 29.89908 | -90.07481 | 7983 ft | 291 kts | 133° |
| 2026-05-05 23:45 | 29.88606 | -90.05666 | 8731 ft | 299 kts | 134° |
| 2026-05-05 23:45 | 29.87277 | -90.03812 | 9596 ft | 300 kts | 133° |
| 2026-05-05 23:45 | 29.85927 | -90.01941 | 10214 ft | 313 kts | 133° |
| 2026-05-05 23:46 | 29.84478 | -89.99944 | 10449 ft | 336 kts | 133° |
| 2026-05-05 23:46 | 29.82941 | -89.97835 | 10914 ft | 348 kts | 133° |
| 2026-05-05 23:46 | 29.81372 | -89.95679 | 11557 ft | 354 kts | 132° |
| 2026-05-05 23:46 | 29.79779 | -89.93488 | 12210 ft | 361 kts | 132° |
| 2026-05-05 23:47 | 29.78156 | -89.91256 | 12865 ft | 367 kts | 132° |
| 2026-05-05 23:47 | 29.76502 | -89.88985 | 13475 ft | 375 kts | 132° |
| 2026-05-05 23:47 | 29.74815 | -89.86668 | 14052 ft | 381 kts | 132° |
| 2026-05-05 23:47 | 29.73089 | -89.84299 | 14600 ft | 388 kts | 132° |
| 2026-05-05 23:48 | 29.71372 | -89.81945 | 15126 ft | 394 kts | 132° |
| 2026-05-05 23:48 | 29.69595 | -89.79511 | 15659 ft | 400 kts | 132° |
| 2026-05-05 23:48 | 29.67795 | -89.77047 | 16185 ft | 406 kts | 132° |
| 2026-05-05 23:48 | 29.65943 | -89.74511 | 16713 ft | 412 kts | 132° |
| 2026-05-05 23:49 | 29.64111 | -89.72004 | 17248 ft | 418 kts | 132° |
| 2026-05-05 23:49 | 29.62229 | -89.69428 | 17783 ft | 424 kts | 132° |
| 2026-05-05 23:49 | 29.60320 | -89.66821 | 18307 ft | 429 kts | 132° |
| 2026-05-05 23:49 | 29.58391 | -89.64188 | 18785 ft | 433 kts | 132° |
| 2026-05-05 23:50 | 29.56440 | -89.61526 | 19269 ft | 437 kts | 132° |
| 2026-05-05 23:50 | 29.54472 | -89.58841 | 19755 ft | 441 kts | 132° |
| 2026-05-05 23:50 | 29.52491 | -89.56142 | 20203 ft | 445 kts | 131° |
| 2026-05-05 23:50 | 29.50483 | -89.53414 | 20663 ft | 449 kts | 131° |
| 2026-05-05 23:51 | 29.48459 | -89.50662 | 21123 ft | 453 kts | 131° |
| 2026-05-05 23:51 | 29.46419 | -89.47885 | 21574 ft | 456 kts | 131° |
| 2026-05-05 23:51 | 29.44369 | -89.45099 | 22015 ft | 460 kts | 131° |
| 2026-05-05 23:51 | 29.42287 | -89.42276 | 22445 ft | 464 kts | 131° |
| 2026-05-05 23:52 | 29.40194 | -89.39440 | 22921 ft | 468 kts | 131° |
| 2026-05-05 23:52 | 29.38087 | -89.36584 | 23358 ft | 471 kts | 131° |
| 2026-05-05 23:52 | 29.35963 | -89.33704 | 23744 ft | 475 kts | 131° |
| 2026-05-05 23:52 | 29.33822 | -89.30802 | 24110 ft | 478 kts | 131° |
| 2026-05-05 23:53 | 29.31677 | -89.27892 | 24489 ft | 480 kts | 131° |
| 2026-05-05 23:53 | 29.29506 | -89.24950 | 24877 ft | 483 kts | 131° |
| 2026-05-05 23:53 | 29.27329 | -89.22007 | 25235 ft | 486 kts | 132° |
| 2026-05-05 23:53 | 29.25132 | -89.19048 | 25602 ft | 488 kts | 132° |
| 2026-05-05 23:54 | 29.22925 | -89.16074 | 25962 ft | 491 kts | 132° |
| 2026-05-05 23:54 | 29.20711 | -89.13092 | 26329 ft | 493 kts | 132° |
| 2026-05-05 23:54 | 29.18492 | -89.10104 | 26704 ft | 495 kts | 132° |
| 2026-05-05 23:54 | 29.16249 | -89.07087 | 27084 ft | 497 kts | 132° |
| 2026-05-05 23:55 | 29.14006 | -89.04072 | 27440 ft | 499 kts | 132° |
| 2026-05-05 23:55 | 29.11751 | -89.01042 | 27817 ft | 502 kts | 133° |
| 2026-05-05 23:55 | 29.09482 | -88.97995 | 28203 ft | 504 kts | 133° |
| 2026-05-05 23:55 | 29.07203 | -88.94936 | 28600 ft | 506 kts | 133° |
| 2026-05-05 23:56 | 29.04910 | -88.91862 | 28993 ft | 509 kts | 133° |
| 2026-05-05 23:56 | 29.02610 | -88.88781 | 29399 ft | 511 kts | 133° |
| 2026-05-05 23:56 | 29.00328 | -88.85722 | 29774 ft | 514 kts | 133° |
| 2026-05-05 23:56 | 28.97970 | -88.82568 | 30122 ft | 517 kts | 133° |
| 2026-05-05 23:57 | 28.95662 | -88.79483 | 30420 ft | 520 kts | 133° |
| 2026-05-05 23:57 | 28.93307 | -88.76337 | 30725 ft | 521 kts | 133° |
| 2026-05-05 23:57 | 28.90959 | -88.73198 | 31184 ft | 520 kts | 133° |
| 2026-05-05 23:57 | 28.88612 | -88.70065 | 31629 ft | 520 kts | 133° |
| 2026-05-05 23:58 | 28.86254 | -88.66923 | 31806 ft | 520 kts | 133° |
| 2026-05-05 23:58 | 28.83899 | -88.63789 | 32007 ft | 521 kts | 133° |
| 2026-05-05 23:58 | 28.81542 | -88.60651 | 32495 ft | 519 kts | 133° |
| 2026-05-05 23:58 | 28.79193 | -88.57530 | 32989 ft | 518 kts | 134° |
| 2026-05-05 23:59 | 28.76853 | -88.54426 | 33440 ft | 517 kts | 133° |
| 2026-05-05 23:59 | 28.74513 | -88.51319 | 33867 ft | 517 kts | 133° |
| 2026-05-05 23:59 | 28.72931 | -88.49218 | 34134 ft | 516 kts | 133° |
| 2026-05-05 23:59 | 28.70592 | -88.46118 | 34490 ft | 516 kts | 133° |
| 2026-05-06 00:00 | 28.68256 | -88.43017 | 34809 ft | 516 kts | 133° |
| 2026-05-06 00:00 | 28.65919 | -88.39917 | 35144 ft | 516 kts | 133° |
| 2026-05-06 00:00 | 28.63582 | -88.36818 | 35463 ft | 516 kts | 133° |
| 2026-05-06 00:00 | 28.61273 | -88.33761 | 35694 ft | 516 kts | 133° |
| 2026-05-06 00:01 | 28.56618 | -88.27611 | 35747 ft | 510 kts | 133° |
| 2026-05-06 00:01 | 28.52013 | -88.21541 | 35755 ft | 505 kts | 133° |
| 2026-05-06 00:02 | 28.47412 | -88.15495 | 35750 ft | 505 kts | 133° |
| 2026-05-06 00:02 | 28.42829 | -88.09467 | 35751 ft | 504 kts | 133° |
| 2026-05-06 00:03 | 28.38627 | -88.03083 | 35760 ft | 506 kts | 119° |
| 2026-05-06 00:03 | 28.36001 | -87.95698 | 35763 ft | 505 kts | 106° |
| 2026-05-06 00:04 | 28.33841 | -87.88109 | 35745 ft | 506 kts | 107° |
| 2026-05-06 00:04 | 28.31641 | -87.80513 | 35754 ft | 506 kts | 107° |
| 2026-05-06 00:05 | 28.28334 | -87.69149 | 35762 ft | 506 kts | 107° |
| 2026-05-06 00:06 | 28.26118 | -87.61559 | 35764 ft | 506 kts | 107° |
| 2026-05-06 00:06 | 28.23907 | -87.53993 | 35769 ft | 506 kts | 107° |
| 2026-05-06 00:07 | 28.21698 | -87.46418 | 35766 ft | 505 kts | 107° |
| 2026-05-06 00:07 | 28.19490 | -87.38854 | 35766 ft | 506 kts | 107° |
| 2026-05-06 00:08 | 28.17286 | -87.31342 | 35764 ft | 506 kts | 107° |
| 2026-05-06 00:08 | 28.15067 | -87.23783 | 35775 ft | 506 kts | 107° |
| 2026-05-06 00:09 | 28.12835 | -87.16219 | 35772 ft | 506 kts | 107° |
| 2026-05-06 00:09 | 28.10603 | -87.08665 | 35772 ft | 506 kts | 107° |
| 2026-05-06 00:10 | 28.08367 | -87.01124 | 35774 ft | 506 kts | 107° |
| 2026-05-06 00:10 | 28.06120 | -86.93566 | 35783 ft | 506 kts | 107° |
| 2026-05-06 00:11 | 28.03877 | -86.86024 | 35783 ft | 506 kts | 107° |
| 2026-05-06 00:11 | 28.01632 | -86.78478 | 35772 ft | 505 kts | 107° |
| 2026-05-06 00:12 | 27.99393 | -86.70933 | 35776 ft | 505 kts | 106° |
| 2026-05-06 00:12 | 27.97234 | -86.63428 | 35786 ft | 504 kts | 106° |
| 2026-05-06 00:13 | 27.95068 | -86.55854 | 35785 ft | 502 kts | 106° |
| 2026-05-06 00:13 | 27.92910 | -86.48403 | 35787 ft | 501 kts | 106° |
| 2026-05-06 00:14 | 27.90726 | -86.40921 | 35786 ft | 501 kts | 106° |
| 2026-05-06 00:14 | 27.88540 | -86.33454 | 35789 ft | 501 kts | 106° |
| 2026-05-06 00:15 | 27.86353 | -86.25978 | 35788 ft | 501 kts | 106° |
| 2026-05-06 00:15 | 27.84163 | -86.18508 | 35786 ft | 501 kts | 106° |
| 2026-05-06 00:16 | 27.81969 | -86.11038 | 35792 ft | 501 kts | 106° |
| 2026-05-06 00:16 | 27.79764 | -86.03558 | 35790 ft | 501 kts | 106° |
| 2026-05-06 00:17 | 27.77568 | -85.96096 | 35787 ft | 501 kts | 106° |
| 2026-05-06 00:17 | 27.75359 | -85.88625 | 35789 ft | 501 kts | 106° |
| 2026-05-06 00:18 | 27.73148 | -85.81157 | 35790 ft | 502 kts | 106° |
| 2026-05-06 00:18 | 27.70928 | -85.73695 | 35793 ft | 502 kts | 106° |
| 2026-05-06 00:19 | 27.68706 | -85.66238 | 35796 ft | 501 kts | 106° |
| 2026-05-06 00:19 | 27.66483 | -85.58793 | 35799 ft | 501 kts | 106° |
| 2026-05-06 00:20 | 27.64255 | -85.51343 | 35799 ft | 500 kts | 106° |
| 2026-05-06 00:20 | 27.62031 | -85.43922 | 35800 ft | 500 kts | 106° |
| 2026-05-06 00:21 | 27.59807 | -85.36546 | 35807 ft | 500 kts | 106° |
| 2026-05-06 00:21 | 27.58230 | -85.28922 | 35809 ft | 496 kts | 97° |
| 2026-05-06 00:22 | 27.56918 | -85.21341 | 35809 ft | 496 kts | 97° |
| 2026-05-06 00:22 | 27.55570 | -85.13716 | 35811 ft | 496 kts | 97° |
| 2026-05-06 00:23 | 27.54229 | -85.06083 | 35813 ft | 496 kts | 97° |
| 2026-05-06 00:23 | 27.52908 | -84.98472 | 35822 ft | 496 kts | 97° |
| 2026-05-06 00:24 | 27.51561 | -84.90836 | 35821 ft | 496 kts | 97° |
| 2026-05-06 00:24 | 27.50208 | -84.83218 | 35822 ft | 496 kts | 97° |
| 2026-05-06 00:25 | 27.48861 | -84.75594 | 35821 ft | 497 kts | 97° |
| 2026-05-06 00:25 | 27.47507 | -84.67972 | 35822 ft | 497 kts | 97° |
| 2026-05-06 00:26 | 27.46147 | -84.60327 | 35823 ft | 497 kts | 97° |
| 2026-05-06 00:26 | 27.44790 | -84.52686 | 35819 ft | 498 kts | 97° |
| 2026-05-06 00:27 | 27.43413 | -84.45059 | 35825 ft | 498 kts | 97° |
| 2026-05-06 00:27 | 27.42208 | -84.37421 | 35829 ft | 493 kts | 89° |
| 2026-05-06 00:28 | 27.41974 | -84.29728 | 35822 ft | 491 kts | 86° |
| 2026-05-06 00:28 | 27.41772 | -84.22036 | 35826 ft | 492 kts | 86° |
| 2026-05-06 00:29 | 27.41564 | -84.14356 | 35824 ft | 492 kts | 86° |
| 2026-05-06 00:29 | 27.41349 | -84.06651 | 35826 ft | 492 kts | 86° |
| 2026-05-06 00:30 | 27.41122 | -83.99006 | 35827 ft | 492 kts | 86° |
| 2026-05-06 00:30 | 27.40886 | -83.91290 | 35827 ft | 493 kts | 86° |
| 2026-05-06 00:31 | 27.40647 | -83.83593 | 35838 ft | 493 kts | 86° |
| 2026-05-06 00:31 | 27.40423 | -83.75878 | 35836 ft | 493 kts | 86° |
| 2026-05-06 00:32 | 27.40190 | -83.68170 | 35840 ft | 493 kts | 86° |
| 2026-05-06 00:32 | 27.39940 | -83.60473 | 35841 ft | 492 kts | 86° |
| 2026-05-06 00:33 | 27.39687 | -83.52768 | 35843 ft | 492 kts | 86° |
| 2026-05-06 00:33 | 27.39428 | -83.45067 | 35842 ft | 493 kts | 86° |
| 2026-05-06 00:34 | 27.39150 | -83.37372 | 35827 ft | 493 kts | 86° |
| 2026-05-06 00:34 | 27.39024 | -83.33486 | 35594 ft | 498 kts | 86° |
| 2026-05-06 00:34 | 27.38897 | -83.29584 | 35348 ft | 497 kts | 86° |
| 2026-05-06 00:34 | 27.38772 | -83.25732 | 35123 ft | 494 kts | 86° |
| 2026-05-06 00:35 | 27.38646 | -83.21872 | 34888 ft | 493 kts | 86° |
| 2026-05-06 00:35 | 27.38514 | -83.18012 | 34655 ft | 493 kts | 86° |
| 2026-05-06 00:35 | 27.38301 | -83.14163 | 34432 ft | 497 kts | 93° |
| 2026-05-06 00:35 | 27.37543 | -83.10327 | 34204 ft | 503 kts | 103° |
| 2026-05-06 00:36 | 27.36538 | -83.06562 | 33967 ft | 502 kts | 103° |
| 2026-05-06 00:36 | 27.35533 | -83.02813 | 33702 ft | 500 kts | 103° |
| 2026-05-06 00:36 | 27.34533 | -82.99081 | 33444 ft | 498 kts | 102° |
| 2026-05-06 00:36 | 27.33542 | -82.95356 | 33187 ft | 495 kts | 102° |
| 2026-05-06 00:37 | 27.32561 | -82.91654 | 32935 ft | 494 kts | 102° |
| 2026-05-06 00:37 | 27.31579 | -82.87963 | 32684 ft | 491 kts | 102° |
| 2026-05-06 00:37 | 27.30598 | -82.84291 | 32431 ft | 489 kts | 103° |
| 2026-05-06 00:37 | 27.29616 | -82.80638 | 32183 ft | 487 kts | 103° |
| 2026-05-06 00:38 | 27.28470 | -82.77118 | 31788 ft | 486 kts | 112° |
| 2026-05-06 00:38 | 27.26974 | -82.73739 | 31592 ft | 484 kts | 114° |
| 2026-05-06 00:38 | 27.25464 | -82.70354 | 31365 ft | 483 kts | 114° |
| 2026-05-06 00:38 | 27.23946 | -82.66932 | 31132 ft | 482 kts | 114° |
| 2026-05-06 00:39 | 27.22483 | -82.63604 | 30895 ft | 479 kts | 114° |
| 2026-05-06 00:39 | 27.21019 | -82.60262 | 30665 ft | 478 kts | 114° |
| 2026-05-06 00:39 | 27.19554 | -82.56924 | 30433 ft | 475 kts | 114° |
| 2026-05-06 00:39 | 27.18097 | -82.53607 | 30202 ft | 473 kts | 114° |
| 2026-05-06 00:40 | 27.16635 | -82.50294 | 29953 ft | 471 kts | 114° |
| 2026-05-06 00:40 | 27.15178 | -82.47008 | 29675 ft | 469 kts | 114° |
| 2026-05-06 00:40 | 27.13724 | -82.43733 | 29408 ft | 467 kts | 114° |
| 2026-05-06 00:40 | 27.12281 | -82.40489 | 29147 ft | 465 kts | 114° |
| 2026-05-06 00:41 | 27.10836 | -82.37247 | 28892 ft | 462 kts | 114° |
| 2026-05-06 00:41 | 27.09405 | -82.34033 | 28634 ft | 460 kts | 114° |
| 2026-05-06 00:41 | 27.07978 | -82.30827 | 28375 ft | 457 kts | 114° |
| 2026-05-06 00:41 | 27.06562 | -82.27643 | 28127 ft | 455 kts | 114° |
| 2026-05-06 00:42 | 27.05150 | -82.24466 | 27892 ft | 453 kts | 114° |
| 2026-05-06 00:42 | 27.03747 | -82.21313 | 27636 ft | 452 kts | 115° |
| 2026-05-06 00:42 | 27.02344 | -82.18166 | 27389 ft | 450 kts | 115° |
| 2026-05-06 00:42 | 27.00953 | -82.15049 | 27150 ft | 448 kts | 115° |
| 2026-05-06 00:43 | 26.99563 | -82.11937 | 26906 ft | 446 kts | 115° |
| 2026-05-06 00:43 | 26.98180 | -82.08836 | 26662 ft | 444 kts | 115° |
| 2026-05-06 00:43 | 26.96737 | -82.05780 | 26422 ft | 442 kts | 121° |
| 2026-05-06 00:43 | 26.94958 | -82.02981 | 26191 ft | 440 kts | 130° |
| 2026-05-06 00:44 | 26.92892 | -82.00469 | 25949 ft | 438 kts | 134° |
| 2026-05-06 00:44 | 26.90794 | -81.97994 | 25713 ft | 436 kts | 134° |
| 2026-05-06 00:44 | 26.88714 | -81.95533 | 25487 ft | 434 kts | 134° |
| 2026-05-06 00:44 | 26.86642 | -81.93081 | 25256 ft | 431 kts | 134° |
| 2026-05-06 00:45 | 26.84595 | -81.90658 | 25027 ft | 430 kts | 134° |
| 2026-05-06 00:45 | 26.82545 | -81.88236 | 25065 ft | 427 kts | 135° |
| 2026-05-06 00:45 | 26.80498 | -81.85821 | 25103 ft | 428 kts | 134° |
| 2026-05-06 00:45 | 26.78468 | -81.83433 | 25100 ft | 429 kts | 135° |
| 2026-05-06 00:46 | 26.76410 | -81.81015 | 25065 ft | 429 kts | 135° |
| 2026-05-06 00:46 | 26.74346 | -81.78605 | 24807 ft | 428 kts | 135° |
| 2026-05-06 00:46 | 26.72261 | -81.76182 | 24371 ft | 426 kts | 135° |
| 2026-05-06 00:46 | 26.70246 | -81.73844 | 24179 ft | 421 kts | 135° |
| 2026-05-06 00:47 | 26.68220 | -81.71493 | 24195 ft | 420 kts | 135° |
| 2026-05-06 00:47 | 26.66195 | -81.69146 | 24196 ft | 420 kts | 135° |
| 2026-05-06 00:47 | 26.64166 | -81.66790 | 24196 ft | 420 kts | 135° |
| 2026-05-06 00:47 | 26.62254 | -81.64325 | 23924 ft | 421 kts | 127° |
| 2026-05-06 00:48 | 26.60494 | -81.61710 | 23436 ft | 420 kts | 127° |
| 2026-05-06 00:48 | 26.58789 | -81.59154 | 22985 ft | 418 kts | 127° |
| 2026-05-06 00:48 | 26.57061 | -81.56566 | 22544 ft | 414 kts | 127° |
| 2026-05-06 00:48 | 26.55345 | -81.54001 | 22110 ft | 411 kts | 127° |
| 2026-05-06 00:49 | 26.53637 | -81.51457 | 21708 ft | 407 kts | 128° |
| 2026-05-06 00:49 | 26.51946 | -81.48948 | 21255 ft | 402 kts | 128° |
| 2026-05-06 00:49 | 26.50274 | -81.46471 | 20591 ft | 396 kts | 128° |
| 2026-05-06 00:49 | 26.48631 | -81.44039 | 19896 ft | 391 kts | 128° |
| 2026-05-06 00:50 | 26.47548 | -81.42438 | 19467 ft | 386 kts | 128° |
| 2026-05-06 00:50 | 26.45947 | -81.40069 | 18830 ft | 380 kts | 128° |
| 2026-05-06 00:50 | 26.44368 | -81.37737 | 18203 ft | 374 kts | 128° |
| 2026-05-06 00:50 | 26.42807 | -81.35430 | 17631 ft | 372 kts | 128° |
| 2026-05-06 00:51 | 26.41261 | -81.33147 | 17294 ft | 366 kts | 128° |
| 2026-05-06 00:51 | 26.39693 | -81.30923 | 16912 ft | 363 kts | 130° |
| 2026-05-06 00:51 | 26.38090 | -81.28754 | 16537 ft | 360 kts | 131° |
| 2026-05-06 00:51 | 26.36483 | -81.26634 | 16094 ft | 355 kts | 131° |
| 2026-05-06 00:52 | 26.34893 | -81.24551 | 15417 ft | 351 kts | 131° |
| 2026-05-06 00:52 | 26.33317 | -81.22484 | 14771 ft | 347 kts | 131° |
| 2026-05-06 00:52 | 26.31770 | -81.20441 | 14137 ft | 343 kts | 131° |
| 2026-05-06 00:52 | 26.30261 | -81.18430 | 13567 ft | 334 kts | 131° |
| 2026-05-06 00:53 | 26.28777 | -81.16445 | 13238 ft | 333 kts | 131° |
| 2026-05-06 00:53 | 26.27317 | -81.14503 | 12861 ft | 331 kts | 131° |
| 2026-05-06 00:53 | 26.25831 | -81.12540 | 12488 ft | 331 kts | 131° |
| 2026-05-06 00:53 | 26.24353 | -81.10595 | 12105 ft | 330 kts | 131° |
| 2026-05-06 00:54 | 26.22869 | -81.08652 | 11742 ft | 328 kts | 131° |
| 2026-05-06 00:54 | 26.21398 | -81.06728 | 11395 ft | 326 kts | 131° |
| 2026-05-06 00:54 | 26.19943 | -81.04821 | 10992 ft | 318 kts | 131° |
| 2026-05-06 00:54 | 26.18516 | -81.02945 | 10663 ft | 315 kts | 131° |
| 2026-05-06 00:55 | 26.17107 | -81.01093 | 10327 ft | 312 kts | 131° |
| 2026-05-06 00:55 | 26.15746 | -80.99238 | 10001 ft | 310 kts | 125° |
| 2026-05-06 00:55 | 26.14734 | -80.97133 | 9639 ft | 307 kts | 111° |
| 2026-05-06 00:55 | 26.14199 | -80.94858 | 9248 ft | 305 kts | 99° |
| 2026-05-06 00:56 | 26.13828 | -80.92545 | 8877 ft | 302 kts | 100° |
| 2026-05-06 00:56 | 26.13449 | -80.90253 | 8509 ft | 300 kts | 100° |
| 2026-05-06 00:56 | 26.13067 | -80.87978 | 8147 ft | 298 kts | 100° |
| 2026-05-06 00:56 | 26.12686 | -80.85717 | 7789 ft | 295 kts | 100° |
| 2026-05-06 00:57 | 26.12308 | -80.83479 | 7439 ft | 294 kts | 100° |
| 2026-05-06 00:57 | 26.11933 | -80.81249 | 7097 ft | 292 kts | 100° |
| 2026-05-06 00:57 | 26.11568 | -80.79044 | 6765 ft | 290 kts | 99° |
| 2026-05-06 00:57 | 26.11239 | -80.76841 | 6631 ft | 289 kts | 98° |
| 2026-05-06 00:58 | 26.10934 | -80.74631 | 6498 ft | 289 kts | 98° |
| 2026-05-06 00:58 | 26.10640 | -80.72452 | 6339 ft | 288 kts | 98° |
| 2026-05-06 00:58 | 26.10341 | -80.70228 | 6180 ft | 289 kts | 98° |
| 2026-05-06 00:58 | 26.10045 | -80.68021 | 6013 ft | 286 kts | 98° |
| 2026-05-06 00:59 | 26.09749 | -80.65835 | 5854 ft | 285 kts | 98° |
| 2026-05-06 00:59 | 26.09451 | -80.63669 | 5703 ft | 284 kts | 98° |
| 2026-05-06 00:59 | 26.09155 | -80.61532 | 5543 ft | 283 kts | 98° |
| 2026-05-06 00:59 | 26.08853 | -80.59369 | 5394 ft | 282 kts | 98° |
| 2026-05-06 01:00 | 26.08554 | -80.57219 | 5236 ft | 281 kts | 98° |
| 2026-05-06 01:00 | 26.08243 | -80.55079 | 5084 ft | 280 kts | 101° |
| 2026-05-06 01:00 | 26.07880 | -80.52962 | 4924 ft | 277 kts | 95° |
| 2026-05-06 01:00 | 26.07804 | -80.50848 | 4773 ft | 269 kts | 89° |
| 2026-05-06 01:01 | 26.07824 | -80.48800 | 4619 ft | 261 kts | 88° |
| 2026-05-06 01:01 | 26.07828 | -80.46810 | 4469 ft | 253 kts | 89° |
| 2026-05-06 01:01 | 26.07821 | -80.44866 | 4253 ft | 248 kts | 89° |
| 2026-05-06 01:01 | 26.07814 | -80.42988 | 4087 ft | 240 kts | 89° |
| 2026-05-06 01:02 | 26.07806 | -80.41167 | 3974 ft | 229 kts | 89° |
| 2026-05-06 01:02 | 26.07800 | -80.39433 | 3854 ft | 221 kts | 89° |
| 2026-05-06 01:02 | 26.07794 | -80.37736 | 3619 ft | 217 kts | 89° |
| 2026-05-06 01:02 | 26.07786 | -80.36087 | 3344 ft | 208 kts | 89° |
| 2026-05-06 01:03 | 26.07780 | -80.34512 | 3081 ft | 200 kts | 89° |
| 2026-05-06 01:03 | 26.07774 | -80.33001 | 2833 ft | 193 kts | 88° |
| 2026-05-06 01:03 | 26.07769 | -80.31525 | 2611 ft | 187 kts | 89° |
| 2026-05-06 01:03 | 26.07762 | -80.30102 | 2352 ft | 180 kts | 88° |
| 2026-05-06 01:04 | 26.07755 | -80.28734 | 2113 ft | 174 kts | 88° |
| 2026-05-06 01:04 | 26.07748 | -80.27412 | 1893 ft | 168 kts | 88° |
| 2026-05-06 01:04 | 26.07742 | -80.26148 | 1677 ft | 159 kts | 88° |
| 2026-05-06 01:04 | 26.07736 | -80.24957 | 1474 ft | 149 kts | 88° |
| 2026-05-06 01:05 | 26.07730 | -80.23854 | 1298 ft | 140 kts | 87° |
| 2026-05-06 01:05 | 26.07725 | -80.22787 | 1113 ft | 137 kts | 88° |
| 2026-05-06 01:05 | 26.07721 | -80.21744 | 935 ft | 135 kts | 89° |
| 2026-05-06 01:05 | 26.07717 | -80.20725 | 807 ft | 129 kts | 89° |
| 2026-05-06 01:06 | 26.07705 | -80.19732 | 630 ft | 129 kts | 90° |
| 2026-05-06 01:06 | 26.07688 | -80.18736 | 456 ft | 128 kts | 88° |
| 2026-05-06 01:06 | 26.07700 | -80.17747 | 274 ft | 129 kts | 90° |
| 2026-05-06 01:06 | 26.07694 | -80.16758 | 122 ft | 128 kts | 88° |
| 2026-05-06 01:07 | 26.07690 | -80.15825 | 32 ft | 112 kts | 90° |
| 2026-05-06 01:07 | 26.07687 | -80.15135 | 16 ft | 69 kts | 91° |
| 2026-05-06 01:07 | 26.07685 | -80.14705 | 24 ft | 47 kts | 90° |
| 2026-05-06 01:07 | 26.07658 | -80.14460 | 26 ft | 27 kts | 113° |
| 2026-05-06 01:08 | 26.07584 | -80.14348 | 26 ft | 14 kts | 168° |
| 2026-05-06 01:08 | 26.07562 | -80.14422 | 26 ft | 12 kts | 271° |
| 2026-05-06 01:08 | 26.07530 | -80.14508 | 27 ft | 14 kts | 199° |
| 2026-05-06 01:08 | 26.07458 | -80.14496 | 26 ft | 7 kts | 167° |
| 2026-05-06 01:09 | 26.07421 | -80.14533 | 29 ft | 8 kts | 212° |
| 2026-05-06 01:09 | 26.07365 | -80.14504 | 24 ft | 12 kts | 120° |
| 2026-05-06 01:09 | 26.07338 | -80.14422 | 23 ft | 6 kts | 101° |
| 2026-05-06 01:09 | 26.07337 | -80.14419 | 23 ft | 0 kts | 101° |